sensor_id;sensor_type;location;lat;lon;timestamp;pressure;altitude;pressure_sealevel;temperature;humidity
53889;BME280;41337;51.400;-2.342;2022-10-16T00:02:23;100033.28;;;11.76;100.00
53889;BME280;41337;51.400;-2.342;2022-10-16T00:07:24;100042.88;;;11.75;100.00
53889;BME280;41337;51.400;-2.342;2022-10-16T00:12:25;100048.16;;;11.71;100.00
53889;BME280;41337;51.400;-2.342;2022-10-16T00:17:25;100043.78;;;11.73;100.00
53889;BME280;41337;51.400;-2.342;2022-10-16T00:22:26;100036.00;;;11.68;100.00
53889;BME280;41337;51.400;-2.342;2022-10-16T00:27:27;100043.03;;;11.63;100.00
53889;BME280;41337;51.400;-2.342;2022-10-16T00:32:28;100029.97;;;11.65;100.00
53889;BME280;41337;51.400;-2.342;2022-10-16T00:37:29;100040.50;;;11.57;100.00
53889;BME280;41337;51.400;-2.342;2022-10-16T00:42:30;100042.31;;;11.53;100.00
53889;BME280;41337;51.400;-2.342;2022-10-16T00:47:37;100048.50;;;11.48;100.00
53889;BME280;41337;51.400;-2.342;2022-10-16T00:52:46;100054.53;;;11.50;100.00
53889;BME280;41337;51.400;-2.342;2022-10-16T00:57:48;100057.06;;;11.56;100.00
53889;BME280;41337;51.400;-2.342;2022-10-16T01:02:59;100054.56;;;11.47;100.00
53889;BME280;41337;51.400;-2.342;2022-10-16T01:08:21;100065.94;;;11.43;100.00
53889;BME280;41337;51.400;-2.342;2022-10-16T01:13:42;100080.75;;;11.39;100.00
53889;BME280;41337;51.400;-2.342;2022-10-16T01:19:05;100089.53;;;11.32;100.00
53889;BME280;41337;51.400;-2.342;2022-10-16T01:29:34;100109.59;;;11.27;100.00
53889;BME280;41337;51.400;-2.342;2022-10-16T01:35:02;100118.38;;;11.18;100.00
53889;BME280;41337;51.400;-2.342;2022-10-16T01:40:11;100128.81;;;11.16;100.00
53889;BME280;41337;51.400;-2.342;2022-10-16T01:45:16;100117.63;;;11.08;100.00
53889;BME280;41337;51.400;-2.342;2022-10-16T01:50:20;100120.31;;;11.02;100.00
53889;BME280;41337;51.400;-2.342;2022-10-16T01:55:34;100123.84;;;10.93;100.00
53889;BME280;41337;51.400;-2.342;2022-10-16T02:00:39;100129.97;;;10.94;100.00
53889;BME280;41337;51.400;-2.342;2022-10-16T02:05:44;100133.50;;;10.83;100.00
53889;BME280;41337;51.400;-2.342;2022-10-16T02:10:49;100144.78;;;10.89;100.00
53889;BME280;41337;51.400;-2.342;2022-10-16T02:15:50;100150.88;;;10.84;100.00
53889;BME280;41337;51.400;-2.342;2022-10-16T02:26:27;100167.47;;;10.76;100.00
53889;BME280;41337;51.400;-2.342;2022-10-16T02:31:35;100177.72;;;10.94;100.00
53889;BME280;41337;51.400;-2.342;2022-10-16T02:36:36;100174.31;;;10.86;100.00
53889;BME280;41337;51.400;-2.342;2022-10-16T02:41:38;100183.00;;;10.85;100.00
53889;BME280;41337;51.400;-2.342;2022-10-16T02:46:39;100192.59;;;10.81;100.00
53889;BME280;41337;51.400;-2.342;2022-10-16T02:51:39;100192.59;;;10.81;100.00
53889;BME280;41337;51.400;-2.342;2022-10-16T02:56:40;100199.63;;;10.73;100.00
53889;BME280;41337;51.400;-2.342;2022-10-16T03:01:41;100197.94;;;10.68;100.00
53889;BME280;41337;51.400;-2.342;2022-10-16T03:06:42;100212.78;;;10.58;100.00
53889;BME280;41337;51.400;-2.342;2022-10-16T03:11:43;100198.94;;;10.51;100.00
53889;BME280;41337;51.400;-2.342;2022-10-16T03:16:43;100211.81;;;10.68;100.00
53889;BME280;41337;51.400;-2.342;2022-10-16T03:21:44;100231.06;;;10.52;100.00
53889;BME280;41337;51.400;-2.342;2022-10-16T03:26:45;100237.13;;;10.52;100.00
53889;BME280;41337;51.400;-2.342;2022-10-16T03:31:46;100251.03;;;10.50;100.00
53889;BME280;41337;51.400;-2.342;2022-10-16T03:36:53;100264.97;;;10.42;100.00
53889;BME280;41337;51.400;-2.342;2022-10-16T03:41:54;100278.00;;;10.39;100.00
53889;BME280;41337;51.400;-2.342;2022-10-16T03:46:55;100283.25;;;10.30;100.00
53889;BME280;41337;51.400;-2.342;2022-10-16T03:51:56;100284.13;;;10.34;100.00
53889;BME280;41337;51.400;-2.342;2022-10-16T03:56:56;100291.03;;;10.38;100.00
53889;BME280;41337;51.400;-2.342;2022-10-16T04:01:57;100305.72;;;10.51;100.00
53889;BME280;41337;51.400;-2.342;2022-10-16T04:06:58;100318.78;;;10.43;100.00
53889;BME280;41337;51.400;-2.342;2022-10-16T04:11:59;100322.25;;;10.39;100.00
53889;BME280;41337;51.400;-2.342;2022-10-16T04:17:00;100315.34;;;10.41;100.00
53889;BME280;41337;51.400;-2.342;2022-10-16T04:22:00;100317.97;;;10.35;100.00
53889;BME280;41337;51.400;-2.342;2022-10-16T04:27:01;100325.75;;;10.43;100.00
53889;BME280;41337;51.400;-2.342;2022-10-16T04:32:02;100335.34;;;10.33;100.00
53889;BME280;41337;51.400;-2.342;2022-10-16T04:37:03;100337.03;;;10.28;100.00
53889;BME280;41337;51.400;-2.342;2022-10-16T04:42:04;100338.81;;;10.20;100.00
53889;BME280;41337;51.400;-2.342;2022-10-16T04:47:05;100344.94;;;10.05;100.00
53889;BME280;41337;51.400;-2.342;2022-10-16T04:52:12;100361.44;;;10.02;100.00
53889;BME280;41337;51.400;-2.342;2022-10-16T04:57:13;100378.81;;;9.97;100.00
53889;BME280;41337;51.400;-2.342;2022-10-16T05:02:14;100388.38;;;9.83;100.00
53889;BME280;41337;51.400;-2.342;2022-10-16T05:07:15;100394.47;;;9.69;100.00
53889;BME280;41337;51.400;-2.342;2022-10-16T05:12:16;100383.19;;;9.60;100.00
53889;BME280;41337;51.400;-2.342;2022-10-16T05:17:17;100384.91;;;9.56;100.00
53889;BME280;41337;51.400;-2.342;2022-10-16T05:22:18;100395.31;;;9.54;100.00
53889;BME280;41337;51.400;-2.342;2022-10-16T05:27:18;100407.47;;;9.52;100.00
53889;BME280;41337;51.400;-2.342;2022-10-16T05:32:19;100413.53;;;9.44;100.00
53889;BME280;41337;51.400;-2.342;2022-10-16T05:37:20;100419.56;;;9.38;100.00
53889;BME280;41337;51.400;-2.342;2022-10-16T05:42:21;100420.44;;;9.32;100.00
53889;BME280;41337;51.400;-2.342;2022-10-16T05:47:22;100427.38;;;9.27;100.00
53889;BME280;41337;51.400;-2.342;2022-10-16T05:52:23;100442.09;;;9.19;100.00
53889;BME280;41337;51.400;-2.342;2022-10-16T05:57:28;100451.63;;;9.28;100.00
53889;BME280;41337;51.400;-2.342;2022-10-16T06:02:29;100453.34;;;9.19;100.00
53889;BME280;41337;51.400;-2.342;2022-10-16T06:07:34;100451.59;;;9.08;100.00
53889;BME280;41337;51.400;-2.342;2022-10-16T06:12:39;100457.63;;;9.00;100.00
53889;BME280;41337;51.400;-2.342;2022-10-16T06:17:40;100450.69;;;8.92;100.00
53889;BME280;41337;51.400;-2.342;2022-10-16T06:22:41;100447.16;;;8.79;100.00
53889;BME280;41337;51.400;-2.342;2022-10-16T06:27:42;100448.84;;;8.66;100.00
53889;BME280;41337;51.400;-2.342;2022-10-16T06:32:43;100446.19;;;8.52;100.00
53889;BME280;41337;51.400;-2.342;2022-10-16T06:37:44;100461.69;;;8.41;100.00
53889;BME280;41337;51.400;-2.342;2022-10-16T06:42:44;100474.59;;;8.29;100.00
53889;BME280;41337;51.400;-2.342;2022-10-16T06:47:45;100485.75;;;8.14;100.00
53889;BME280;41337;51.400;-2.342;2022-10-16T06:52:46;100486.50;;;8.02;100.00
53889;BME280;41337;51.400;-2.342;2022-10-16T06:57:47;100495.13;;;7.95;100.00
53889;BME280;41337;51.400;-2.342;2022-10-16T07:02:49;100502.88;;;7.92;100.00
53889;BME280;41337;51.400;-2.342;2022-10-16T07:07:50;100514.09;;;7.86;100.00
53889;BME280;41337;51.400;-2.342;2022-10-16T07:12:51;100524.47;;;7.86;100.00
53889;BME280;41337;51.400;-2.342;2022-10-16T07:17:58;100521.88;;;7.86;100.00
53889;BME280;41337;51.400;-2.342;2022-10-16T07:22:59;100533.94;;;7.86;100.00
53889;BME280;41337;51.400;-2.342;2022-10-16T07:27:59;100548.66;;;7.85;100.00
53889;BME280;41337;51.400;-2.342;2022-10-16T07:33:01;100550.41;;;7.86;100.00
53889;BME280;41337;51.400;-2.342;2022-10-16T07:38:02;100549.56;;;7.90;100.00
53889;BME280;41337;51.400;-2.342;2022-10-16T07:43:02;100549.63;;;8.00;100.00
53889;BME280;41337;51.400;-2.342;2022-10-16T07:48:11;100558.34;;;8.08;100.00
53889;BME280;41337;51.400;-2.342;2022-10-16T07:53:12;100577.53;;;8.25;100.00
53889;BME280;41337;51.400;-2.342;2022-10-16T07:58:13;100573.22;;;8.27;100.00
53889;BME280;41337;51.400;-2.342;2022-10-16T08:03:14;100577.56;;;8.32;100.00
53889;BME280;41337;51.400;-2.342;2022-10-16T08:08:16;100586.34;;;8.43;100.00
53889;BME280;41337;51.400;-2.342;2022-10-16T08:13:18;100589.94;;;8.60;100.00
53889;BME280;41337;51.400;-2.342;2022-10-16T08:18:22;100590.00;;;8.70;100.00
53889;BME280;41337;51.400;-2.342;2022-10-16T08:23:23;100593.53;;;8.84;100.00
53889;BME280;41337;51.400;-2.342;2022-10-16T08:28:27;100594.50;;;9.00;100.00
53889;BME280;41337;51.400;-2.342;2022-10-16T08:33:28;100607.56;;;9.17;100.00
53889;BME280;41337;51.400;-2.342;2022-10-16T08:38:29;100612.84;;;9.35;100.00
53889;BME280;41337;51.400;-2.342;2022-10-16T08:49:15;100611.25;;;9.84;100.00
53889;BME280;41337;51.400;-2.342;2022-10-16T08:54:42;100625.19;;;10.14;100.00
53889;BME280;41337;51.400;-2.342;2022-10-16T09:00:16;100626.13;;;10.48;100.00
53889;BME280;41337;51.400;-2.342;2022-10-16T09:21:31;100652.06;;;12.72;100.00
53889;BME280;41337;51.400;-2.342;2022-10-16T09:26:35;100659.25;;;13.37;100.00
53889;BME280;41337;51.400;-2.342;2022-10-16T09:31:36;100663.56;;;14.08;100.00
53889;BME280;41337;51.400;-2.342;2022-10-16T09:36:53;100672.13;;;14.75;100.00
53889;BME280;41337;51.400;-2.342;2022-10-16T09:41:54;100675.00;;;15.56;100.00
53889;BME280;41337;51.400;-2.342;2022-10-16T09:47:23;100683.19;;;15.85;100.00
53889;BME280;41337;51.400;-2.342;2022-10-16T09:52:25;100681.72;;;16.12;100.00
53889;BME280;41337;51.400;-2.342;2022-10-16T09:57:26;100688.78;;;16.46;100.00
53889;BME280;41337;51.400;-2.342;2022-10-16T10:02:40;100685.88;;;16.94;100.00
53889;BME280;41337;51.400;-2.342;2022-10-16T10:07:43;100682.66;;;17.16;100.00
53889;BME280;41337;51.400;-2.342;2022-10-16T10:12:46;100678.22;;;17.18;100.00
53889;BME280;41337;51.400;-2.342;2022-10-16T10:17:55;100675.97;;;17.35;100.00
53889;BME280;41337;51.400;-2.342;2022-10-16T10:22:56;100676.78;;;17.69;100.00
53889;BME280;41337;51.400;-2.342;2022-10-16T11:15:55;100662.22;;;17.87;87.05
53889;BME280;41337;51.400;-2.342;2022-10-16T11:21:08;100665.91;;;17.79;92.22
53889;BME280;41337;51.400;-2.342;2022-10-16T11:26:18;100661.47;;;17.82;85.24
53889;BME280;41337;51.400;-2.342;2022-10-16T11:31:47;100666.41;;;18.22;91.02
53889;BME280;41337;51.400;-2.342;2022-10-16T11:36:58;100667.59;;;18.67;83.08
53889;BME280;41337;51.400;-2.342;2022-10-16T11:42:22;100668.66;;;18.88;85.26
53889;BME280;41337;51.400;-2.342;2022-10-16T11:53:18;100666.97;;;19.11;77.10
53889;BME280;41337;51.400;-2.342;2022-10-16T11:58:41;100661.34;;;18.43;64.38
53889;BME280;41337;51.400;-2.342;2022-10-16T12:09:25;100658.63;;;18.98;78.08
53889;BME280;41337;51.400;-2.342;2022-10-16T12:19:29;100645.84;;;19.11;73.13
53889;BME280;41337;51.400;-2.342;2022-10-16T12:24:45;100644.69;;;18.94;81.49
53889;BME280;41337;51.400;-2.342;2022-10-16T12:29:57;100641.78;;;19.02;85.57
53889;BME280;41337;51.400;-2.342;2022-10-16T12:35:03;100649.03;;;19.20;85.58
53889;BME280;41337;51.400;-2.342;2022-10-16T12:40:30;100650.97;;;19.15;86.78
53889;BME280;41337;51.400;-2.342;2022-10-16T12:45:33;100650.56;;;18.76;91.07
53889;BME280;41337;51.400;-2.342;2022-10-16T12:50:41;100641.13;;;18.95;88.85
53889;BME280;41337;51.400;-2.342;2022-10-16T13:06:51;100618.56;;;18.60;76.26
53889;BME280;41337;51.400;-2.342;2022-10-16T13:17:25;100620.50;;;18.80;79.89
53889;BME280;41337;51.400;-2.342;2022-10-16T13:28:11;100612.75;;;19.25;72.68
53889;BME280;41337;51.400;-2.342;2022-10-16T13:38:22;100592.91;;;19.61;75.29
53889;BME280;41337;51.400;-2.342;2022-10-16T13:43:31;100580.19;;;19.49;76.76
53889;BME280;41337;51.400;-2.342;2022-10-16T13:48:37;100583.13;;;19.63;80.64
53889;BME280;41337;51.400;-2.342;2022-10-16T13:53:38;100578.22;;;19.77;77.52
53889;BME280;41337;51.400;-2.342;2022-10-16T13:58:39;100572.06;;;19.77;76.88
53889;BME280;41337;51.400;-2.342;2022-10-16T14:03:41;100571.94;;;19.80;79.34
53889;BME280;41337;51.400;-2.342;2022-10-16T14:08:45;100570.59;;;19.92;75.29
53889;BME280;41337;51.400;-2.342;2022-10-16T14:13:50;100562.72;;;19.90;73.64
53889;BME280;41337;51.400;-2.342;2022-10-16T14:19:18;100575.88;;;19.92;68.81
53889;BME280;41337;51.400;-2.342;2022-10-16T14:24:54;100566.09;;;19.48;69.64
53889;BME280;41337;51.400;-2.342;2022-10-16T14:30:18;100560.16;;;19.19;78.03
53889;BME280;41337;51.400;-2.342;2022-10-16T14:35:24;100560.97;;;19.21;81.19
53889;BME280;41337;51.400;-2.342;2022-10-16T14:40:32;100548.56;;;19.00;86.27
53889;BME280;41337;51.400;-2.342;2022-10-16T14:45:35;100546.84;;;18.99;88.72
53889;BME280;41337;51.400;-2.342;2022-10-16T14:50:44;100537.41;;;18.66;93.11
53889;BME280;41337;51.400;-2.342;2022-10-16T14:55:46;100536.28;;;18.48;94.70
53889;BME280;41337;51.400;-2.342;2022-10-16T15:00:52;100516.00;;;18.25;97.46
53889;BME280;41337;51.400;-2.342;2022-10-16T15:05:53;100498.44;;;18.24;99.53
53889;BME280;41337;51.400;-2.342;2022-10-16T15:10:54;100513.00;;;18.09;100.00
53889;BME280;41337;51.400;-2.342;2022-10-16T15:15:55;100508.75;;;17.78;100.00
53889;BME280;41337;51.400;-2.342;2022-10-16T15:20:56;100516.84;;;17.72;100.00
53889;BME280;41337;51.400;-2.342;2022-10-16T15:26:03;100496.22;;;17.57;100.00
53889;BME280;41337;51.400;-2.342;2022-10-16T15:31:04;100485.75;;;17.27;100.00
53889;BME280;41337;51.400;-2.342;2022-10-16T15:36:06;100467.50;;;17.21;100.00
53889;BME280;41337;51.400;-2.342;2022-10-16T15:41:07;100465.19;;;17.12;100.00
53889;BME280;41337;51.400;-2.342;2022-10-16T15:46:12;100456.91;;;16.94;100.00
53889;BME280;41337;51.400;-2.342;2022-10-16T15:51:15;100424.44;;;16.95;100.00
53889;BME280;41337;51.400;-2.342;2022-10-16T15:56:23;100420.97;;;16.93;100.00
53889;BME280;41337;51.400;-2.342;2022-10-16T16:01:26;100415.75;;;16.92;100.00
53889;BME280;41337;51.400;-2.342;2022-10-16T16:06:31;100415.09;;;16.85;100.00
53889;BME280;41337;51.400;-2.342;2022-10-16T16:11:32;100415.09;;;16.83;100.00
53889;BME280;41337;51.400;-2.342;2022-10-16T16:17:02;100411.03;;;16.73;100.00
53889;BME280;41337;51.400;-2.342;2022-10-16T16:22:03;100391.38;;;16.55;100.00
53889;BME280;41337;51.400;-2.342;2022-10-16T16:27:04;100393.63;;;16.38;100.00
53889;BME280;41337;51.400;-2.342;2022-10-16T16:32:11;100369.16;;;16.36;100.00
53889;BME280;41337;51.400;-2.342;2022-10-16T16:37:12;100370.03;;;16.05;100.00
53889;BME280;41337;51.400;-2.342;2022-10-16T16:42:13;100378.28;;;15.91;100.00
53889;BME280;41337;51.400;-2.342;2022-10-16T16:47:14;100375.94;;;15.80;100.00
53889;BME280;41337;51.400;-2.342;2022-10-16T16:52:15;100368.66;;;15.55;100.00
53889;BME280;41337;51.400;-2.342;2022-10-16T16:57:16;100361.94;;;15.45;100.00
53889;BME280;41337;51.400;-2.342;2022-10-16T17:02:17;100341.88;;;15.41;100.00
53889;BME280;41337;51.400;-2.342;2022-10-16T17:07:23;100325.38;;;15.37;100.00
53889;BME280;41337;51.400;-2.342;2022-10-16T17:12:26;100316.91;;;15.26;100.00
53889;BME280;41337;51.400;-2.342;2022-10-16T17:17:27;100304.63;;;15.27;100.00
53889;BME280;41337;51.400;-2.342;2022-10-16T17:22:27;100268.25;;;15.13;100.00
53889;BME280;41337;51.400;-2.342;2022-10-16T17:27:29;100250.47;;;14.90;100.00
53889;BME280;41337;51.400;-2.342;2022-10-16T17:32:33;100261.38;;;14.71;100.00
53889;BME280;41337;51.400;-2.342;2022-10-16T17:37:34;100258.31;;;14.52;100.00
53889;BME280;41337;51.400;-2.342;2022-10-16T17:42:35;100201.81;;;14.40;100.00
53889;BME280;41337;51.400;-2.342;2022-10-16T17:47:36;100177.19;;;14.08;100.00
53889;BME280;41337;51.400;-2.342;2022-10-16T17:52:37;100166.16;;;13.94;100.00
53889;BME280;41337;51.400;-2.342;2022-10-16T17:57:38;100151.53;;;13.84;100.00
53889;BME280;41337;51.400;-2.342;2022-10-16T18:02:39;100141.41;;;13.68;100.00
53889;BME280;41337;51.400;-2.342;2022-10-16T18:07:42;100117.16;;;13.60;100.00
53889;BME280;41337;51.400;-2.342;2022-10-16T18:12:46;100124.34;;;13.50;100.00
53889;BME280;41337;51.400;-2.342;2022-10-16T18:17:47;100099.09;;;13.46;100.00
53889;BME280;41337;51.400;-2.342;2022-10-16T18:22:48;100065.25;;;13.38;100.00
53889;BME280;41337;51.400;-2.342;2022-10-16T18:27:49;100051.22;;;13.43;100.00
53889;BME280;41337;51.400;-2.342;2022-10-16T18:32:50;100052.13;;;13.40;100.00
53889;BME280;41337;51.400;-2.342;2022-10-16T18:37:50;100049.38;;;13.46;100.00
53889;BME280;41337;51.400;-2.342;2022-10-16T18:42:53;100042.41;;;13.45;100.00
53889;BME280;41337;51.400;-2.342;2022-10-16T18:47:54;100079.91;;;13.47;100.00
53889;BME280;41337;51.400;-2.342;2022-10-16T18:52:59;100059.69;;;13.54;100.00
53889;BME280;41337;51.400;-2.342;2022-10-16T18:58:00;100033.41;;;13.60;100.00
53889;BME280;41337;51.400;-2.342;2022-10-16T19:03:01;100008.78;;;13.67;100.00
53889;BME280;41337;51.400;-2.342;2022-10-16T19:08:01;99979.94;;;13.70;100.00
53889;BME280;41337;51.400;-2.342;2022-10-16T19:13:02;99980.66;;;13.75;100.00
53889;BME280;41337;51.400;-2.342;2022-10-16T19:18:03;99974.38;;;13.83;100.00
53889;BME280;41337;51.400;-2.342;2022-10-16T19:23:04;99969.00;;;13.89;100.00
53889;BME280;41337;51.400;-2.342;2022-10-16T19:28:05;99966.22;;;13.95;100.00
53889;BME280;41337;51.400;-2.342;2022-10-16T19:33:12;99965.25;;;13.99;100.00
53889;BME280;41337;51.400;-2.342;2022-10-16T19:38:13;99959.03;;;14.03;100.00
53889;BME280;41337;51.400;-2.342;2022-10-16T19:43:13;99966.03;;;14.03;100.00
53889;BME280;41337;51.400;-2.342;2022-10-16T19:48:14;99967.72;;;14.05;100.00
53889;BME280;41337;51.400;-2.342;2022-10-16T19:53:16;99961.44;;;14.12;100.00
53889;BME280;41337;51.400;-2.342;2022-10-16T19:58:17;99960.28;;;14.23;100.00
53889;BME280;41337;51.400;-2.342;2022-10-16T20:03:19;99960.91;;;14.32;100.00
53889;BME280;41337;51.400;-2.342;2022-10-16T20:08:26;99962.41;;;14.41;100.00
53889;BME280;41337;51.400;-2.342;2022-10-16T20:13:27;99946.31;;;14.55;100.00
53889;BME280;41337;51.400;-2.342;2022-10-16T20:18:28;99964.31;;;14.67;100.00
53889;BME280;41337;51.400;-2.342;2022-10-16T20:23:29;99947.53;;;14.75;100.00
53889;BME280;41337;51.400;-2.342;2022-10-16T20:28:30;99953.47;;;14.81;100.00
53889;BME280;41337;51.400;-2.342;2022-10-16T20:33:32;99952.41;;;14.87;100.00
53889;BME280;41337;51.400;-2.342;2022-10-16T20:38:36;99954.72;;;14.98;100.00
53889;BME280;41337;51.400;-2.342;2022-10-16T20:43:43;99950.19;;;15.03;100.00
53889;BME280;41337;51.400;-2.342;2022-10-16T20:48:47;99943.19;;;15.03;100.00
53889;BME280;41337;51.400;-2.342;2022-10-16T20:53:55;99952.81;;;15.03;100.00
53889;BME280;41337;51.400;-2.342;2022-10-16T20:58:56;99956.28;;;15.03;100.00
53889;BME280;41337;51.400;-2.342;2022-10-16T21:03:59;99974.78;;;14.99;100.00
53889;BME280;41337;51.400;-2.342;2022-10-16T21:09:02;99966.91;;;14.99;100.00
53889;BME280;41337;51.400;-2.342;2022-10-16T21:14:08;99977.25;;;15.05;100.00
53889;BME280;41337;51.400;-2.342;2022-10-16T21:19:09;99996.47;;;15.05;100.00
53889;BME280;41337;51.400;-2.342;2022-10-16T21:24:10;99992.97;;;15.05;100.00
53889;BME280;41337;51.400;-2.342;2022-10-16T21:29:12;100016.47;;;15.10;100.00
53889;BME280;41337;51.400;-2.342;2022-10-16T21:34:13;100019.00;;;15.13;100.00
53889;BME280;41337;51.400;-2.342;2022-10-16T21:39:20;100046.03;;;15.15;100.00
53889;BME280;41337;51.400;-2.342;2022-10-16T21:44:21;100046.00;;;15.16;100.00
53889;BME280;41337;51.400;-2.342;2022-10-16T21:49:21;100061.66;;;15.19;100.00
53889;BME280;41337;51.400;-2.342;2022-10-16T21:54:23;100071.25;;;15.20;100.00
53889;BME280;41337;51.400;-2.342;2022-10-16T21:59:24;100071.22;;;15.22;100.00
53889;BME280;41337;51.400;-2.342;2022-10-16T22:04:25;100078.16;;;15.23;100.00
53889;BME280;41337;51.400;-2.342;2022-10-16T22:09:25;100086.00;;;15.24;100.00
53889;BME280;41337;51.400;-2.342;2022-10-16T22:14:26;100090.44;;;15.22;100.00
53889;BME280;41337;51.400;-2.342;2022-10-16T22:19:27;100099.16;;;15.23;100.00
53889;BME280;41337;51.400;-2.342;2022-10-16T22:24:28;100103.66;;;15.19;100.00
53889;BME280;41337;51.400;-2.342;2022-10-16T22:29:29;100081.84;;;15.17;100.00
53889;BME280;41337;51.400;-2.342;2022-10-16T22:34:43;100089.72;;;15.17;100.00
53889;BME280;41337;51.400;-2.342;2022-10-16T22:39:44;100115.06;;;15.17;100.00
53889;BME280;41337;51.400;-2.342;2022-10-16T22:44:45;100131.72;;;15.16;100.00
53889;BME280;41337;51.400;-2.342;2022-10-16T22:49:45;100153.47;;;15.21;100.00
53889;BME280;41337;51.400;-2.342;2022-10-16T22:54:46;100147.31;;;15.22;100.00
53889;BME280;41337;51.400;-2.342;2022-10-16T22:59:47;100144.66;;;15.23;100.00
53889;BME280;41337;51.400;-2.342;2022-10-16T23:04:48;100147.44;;;15.17;100.00
53889;BME280;41337;51.400;-2.342;2022-10-16T23:09:49;100168.63;;;15.10;100.00
53889;BME280;41337;51.400;-2.342;2022-10-16T23:14:50;100158.25;;;15.05;100.00
53889;BME280;41337;51.400;-2.342;2022-10-16T23:19:51;100170.59;;;15.01;100.00
53889;BME280;41337;51.400;-2.342;2022-10-16T23:24:52;100185.53;;;14.99;100.00
53889;BME280;41337;51.400;-2.342;2022-10-16T23:29:52;100190.03;;;14.94;100.00
53889;BME280;41337;51.400;-2.342;2022-10-16T23:34:53;100184.91;;;14.90;100.00
53889;BME280;41337;51.400;-2.342;2022-10-16T23:40:01;100166.38;;;14.96;100.00
53889;BME280;41337;51.400;-2.342;2022-10-16T23:45:02;100180.53;;;14.89;100.00
53889;BME280;41337;51.400;-2.342;2022-10-16T23:50:03;100196.34;;;14.85;100.00
53889;BME280;41337;51.400;-2.342;2022-10-16T23:55:04;100188.63;;;14.79;100.00
